sensor_id;sensor_type;location;lat;lon;timestamp;temperature;humidity
35962;DHT22;22044;48.298;10.008;2023-09-19T00:02:17;15.90;99.90
35962;DHT22;22044;48.298;10.008;2023-09-19T00:05:03;15.90;99.90
35962;DHT22;22044;48.298;10.008;2023-09-19T00:07:50;15.90;99.90
35962;DHT22;22044;48.298;10.008;2023-09-19T00:10:38;15.90;99.90
35962;DHT22;22044;48.298;10.008;2023-09-19T00:13:25;15.90;99.90
35962;DHT22;22044;48.298;10.008;2023-09-19T00:16:11;15.90;99.90
35962;DHT22;22044;48.298;10.008;2023-09-19T00:18:58;16.00;99.90
35962;DHT22;22044;48.298;10.008;2023-09-19T00:21:47;15.80;99.90
35962;DHT22;22044;48.298;10.008;2023-09-19T00:24:32;15.80;99.90
35962;DHT22;22044;48.298;10.008;2023-09-19T00:27:18;15.90;99.90
35962;DHT22;22044;48.298;10.008;2023-09-19T00:30:05;15.70;99.90
35962;DHT22;22044;48.298;10.008;2023-09-19T00:32:52;15.50;99.90
35962;DHT22;22044;48.298;10.008;2023-09-19T00:35:47;15.40;99.90
35962;DHT22;22044;48.298;10.008;2023-09-19T00:38:33;15.30;99.90
35962;DHT22;22044;48.298;10.008;2023-09-19T00:41:18;15.40;99.90
35962;DHT22;22044;48.298;10.008;2023-09-19T00:44:05;15.40;99.90
35962;DHT22;22044;48.298;10.008;2023-09-19T00:46:50;15.50;99.90
35962;DHT22;22044;48.298;10.008;2023-09-19T00:49:38;15.60;99.90
35962;DHT22;22044;48.298;10.008;2023-09-19T00:52:25;15.50;99.90
35962;DHT22;22044;48.298;10.008;2023-09-19T00:55:12;15.50;99.90
35962;DHT22;22044;48.298;10.008;2023-09-19T00:58:00;15.40;99.90
35962;DHT22;22044;48.298;10.008;2023-09-19T01:00:48;15.40;99.90
35962;DHT22;22044;48.298;10.008;2023-09-19T01:03:33;15.40;99.90
35962;DHT22;22044;48.298;10.008;2023-09-19T01:06:19;15.30;99.90
35962;DHT22;22044;48.298;10.008;2023-09-19T01:09:07;15.40;99.90
35962;DHT22;22044;48.298;10.008;2023-09-19T01:11:58;15.30;99.90
35962;DHT22;22044;48.298;10.008;2023-09-19T01:14:51;15.30;99.90
35962;DHT22;22044;48.298;10.008;2023-09-19T01:17:46;15.20;99.90
35962;DHT22;22044;48.298;10.008;2023-09-19T01:20:40;15.20;99.90
35962;DHT22;22044;48.298;10.008;2023-09-19T01:23:37;15.20;99.90
35962;DHT22;22044;48.298;10.008;2023-09-19T01:26:37;15.20;99.90
35962;DHT22;22044;48.298;10.008;2023-09-19T01:29:34;15.10;99.90
35962;DHT22;22044;48.298;10.008;2023-09-19T01:32:25;15.10;99.90
35962;DHT22;22044;48.298;10.008;2023-09-19T01:35:11;15.10;99.90
35962;DHT22;22044;48.298;10.008;2023-09-19T01:37:57;15.00;99.90
35962;DHT22;22044;48.298;10.008;2023-09-19T01:40:54;15.00;99.90
35962;DHT22;22044;48.298;10.008;2023-09-19T01:43:42;15.00;99.90
35962;DHT22;22044;48.298;10.008;2023-09-19T01:46:33;15.00;99.90
35962;DHT22;22044;48.298;10.008;2023-09-19T01:49:28;15.00;99.90
35962;DHT22;22044;48.298;10.008;2023-09-19T01:52:20;15.10;99.90
35962;DHT22;22044;48.298;10.008;2023-09-19T01:55:09;15.20;99.90
35962;DHT22;22044;48.298;10.008;2023-09-19T01:58:05;15.20;99.90
35962;DHT22;22044;48.298;10.008;2023-09-19T02:00:54;15.30;99.90
35962;DHT22;22044;48.298;10.008;2023-09-19T02:03:40;15.30;99.90
35962;DHT22;22044;48.298;10.008;2023-09-19T02:06:30;15.40;99.90
35962;DHT22;22044;48.298;10.008;2023-09-19T02:09:18;15.40;99.90
35962;DHT22;22044;48.298;10.008;2023-09-19T02:12:05;15.50;99.90
35962;DHT22;22044;48.298;10.008;2023-09-19T02:14:51;15.50;99.90
35962;DHT22;22044;48.298;10.008;2023-09-19T02:17:36;15.50;99.90
35962;DHT22;22044;48.298;10.008;2023-09-19T02:20:23;15.30;99.90
35962;DHT22;22044;48.298;10.008;2023-09-19T02:23:13;15.20;99.90
35962;DHT22;22044;48.298;10.008;2023-09-19T02:26:00;15.30;99.90
35962;DHT22;22044;48.298;10.008;2023-09-19T02:28:45;15.30;99.90
35962;DHT22;22044;48.298;10.008;2023-09-19T02:31:31;15.30;99.90
35962;DHT22;22044;48.298;10.008;2023-09-19T02:34:17;15.30;99.90
35962;DHT22;22044;48.298;10.008;2023-09-19T02:37:03;15.40;99.90
35962;DHT22;22044;48.298;10.008;2023-09-19T02:39:51;15.30;99.90
35962;DHT22;22044;48.298;10.008;2023-09-19T02:42:37;15.30;99.90
35962;DHT22;22044;48.298;10.008;2023-09-19T02:45:22;15.40;99.90
35962;DHT22;22044;48.298;10.008;2023-09-19T02:48:08;15.30;99.90
35962;DHT22;22044;48.298;10.008;2023-09-19T02:50:55;15.30;99.90
35962;DHT22;22044;48.298;10.008;2023-09-19T02:53:41;15.40;99.90
35962;DHT22;22044;48.298;10.008;2023-09-19T02:56:29;15.50;99.90
35962;DHT22;22044;48.298;10.008;2023-09-19T02:59:15;15.40;99.90
35962;DHT22;22044;48.298;10.008;2023-09-19T03:02:01;15.40;99.90
35962;DHT22;22044;48.298;10.008;2023-09-19T03:04:48;15.50;99.90
35962;DHT22;22044;48.298;10.008;2023-09-19T03:07:35;15.40;99.90
35962;DHT22;22044;48.298;10.008;2023-09-19T03:10:22;15.30;99.90
35962;DHT22;22044;48.298;10.008;2023-09-19T03:13:11;15.40;99.90
35962;DHT22;22044;48.298;10.008;2023-09-19T03:15:56;15.40;99.90
35962;DHT22;22044;48.298;10.008;2023-09-19T03:18:44;15.40;99.90
35962;DHT22;22044;48.298;10.008;2023-09-19T03:21:32;15.40;99.90
35962;DHT22;22044;48.298;10.008;2023-09-19T03:24:17;15.40;99.90
35962;DHT22;22044;48.298;10.008;2023-09-19T03:27:03;15.40;99.90
35962;DHT22;22044;48.298;10.008;2023-09-19T03:29:51;15.50;99.90
35962;DHT22;22044;48.298;10.008;2023-09-19T03:32:37;15.50;99.90
35962;DHT22;22044;48.298;10.008;2023-09-19T03:35:28;15.40;99.90
35962;DHT22;22044;48.298;10.008;2023-09-19T03:38:14;15.40;99.90
35962;DHT22;22044;48.298;10.008;2023-09-19T03:41:00;15.50;99.90
35962;DHT22;22044;48.298;10.008;2023-09-19T03:43:46;15.40;99.90
35962;DHT22;22044;48.298;10.008;2023-09-19T03:46:35;15.40;99.90
35962;DHT22;22044;48.298;10.008;2023-09-19T03:49:21;15.30;99.90
35962;DHT22;22044;48.298;10.008;2023-09-19T03:52:07;15.30;99.90
35962;DHT22;22044;48.298;10.008;2023-09-19T03:54:52;15.30;99.90
35962;DHT22;22044;48.298;10.008;2023-09-19T03:57:39;15.30;99.90
35962;DHT22;22044;48.298;10.008;2023-09-19T04:00:24;15.20;99.90
35962;DHT22;22044;48.298;10.008;2023-09-19T04:03:12;15.20;99.90
35962;DHT22;22044;48.298;10.008;2023-09-19T04:06:04;15.10;99.90
35962;DHT22;22044;48.298;10.008;2023-09-19T04:08:50;15.10;99.90
35962;DHT22;22044;48.298;10.008;2023-09-19T04:11:36;15.10;99.90
35962;DHT22;22044;48.298;10.008;2023-09-19T04:14:22;15.00;99.90
35962;DHT22;22044;48.298;10.008;2023-09-19T04:17:07;15.10;99.90
35962;DHT22;22044;48.298;10.008;2023-09-19T04:19:56;15.10;99.90
35962;DHT22;22044;48.298;10.008;2023-09-19T04:22:41;15.20;99.90
35962;DHT22;22044;48.298;10.008;2023-09-19T04:25:27;15.20;99.90
35962;DHT22;22044;48.298;10.008;2023-09-19T04:28:13;15.10;99.90
35962;DHT22;22044;48.298;10.008;2023-09-19T04:31:00;15.10;99.90
35962;DHT22;22044;48.298;10.008;2023-09-19T04:33:45;15.20;99.90
35962;DHT22;22044;48.298;10.008;2023-09-19T04:36:32;15.20;99.90
35962;DHT22;22044;48.298;10.008;2023-09-19T04:39:20;15.20;99.90
35962;DHT22;22044;48.298;10.008;2023-09-19T04:42:10;15.20;99.90
35962;DHT22;22044;48.298;10.008;2023-09-19T04:44:58;15.20;99.90
35962;DHT22;22044;48.298;10.008;2023-09-19T04:47:44;15.20;99.90
35962;DHT22;22044;48.298;10.008;2023-09-19T04:50:30;15.30;99.90
35962;DHT22;22044;48.298;10.008;2023-09-19T04:53:17;15.30;99.90
35962;DHT22;22044;48.298;10.008;2023-09-19T04:56:04;15.20;99.90
35962;DHT22;22044;48.298;10.008;2023-09-19T04:58:51;15.30;99.90
35962;DHT22;22044;48.298;10.008;2023-09-19T05:01:38;15.30;99.90
35962;DHT22;22044;48.298;10.008;2023-09-19T05:04:23;15.30;99.90
35962;DHT22;22044;48.298;10.008;2023-09-19T05:07:08;15.30;99.90
35962;DHT22;22044;48.298;10.008;2023-09-19T05:09:57;15.30;99.90
35962;DHT22;22044;48.298;10.008;2023-09-19T05:12:43;15.30;99.90
35962;DHT22;22044;48.298;10.008;2023-09-19T05:15:31;15.40;99.90
35962;DHT22;22044;48.298;10.008;2023-09-19T05:18:16;15.40;99.90
35962;DHT22;22044;48.298;10.008;2023-09-19T05:21:02;15.30;99.90
35962;DHT22;22044;48.298;10.008;2023-09-19T05:23:48;15.20;99.90
35962;DHT22;22044;48.298;10.008;2023-09-19T05:26:35;15.30;99.90
35962;DHT22;22044;48.298;10.008;2023-09-19T05:29:21;15.30;99.90
35962;DHT22;22044;48.298;10.008;2023-09-19T05:32:07;15.30;99.90
35962;DHT22;22044;48.298;10.008;2023-09-19T05:34:52;15.30;99.90
35962;DHT22;22044;48.298;10.008;2023-09-19T05:37:40;15.30;99.90
35962;DHT22;22044;48.298;10.008;2023-09-19T05:40:26;15.40;99.90
35962;DHT22;22044;48.298;10.008;2023-09-19T05:43:13;15.30;99.90
35962;DHT22;22044;48.298;10.008;2023-09-19T05:46:00;15.40;99.90
35962;DHT22;22044;48.298;10.008;2023-09-19T05:48:45;15.40;99.90
35962;DHT22;22044;48.298;10.008;2023-09-19T05:51:34;15.50;99.90
35962;DHT22;22044;48.298;10.008;2023-09-19T05:54:20;15.50;99.90
35962;DHT22;22044;48.298;10.008;2023-09-19T05:57:06;15.50;99.90
35962;DHT22;22044;48.298;10.008;2023-09-19T05:59:53;15.50;99.90
35962;DHT22;22044;48.298;10.008;2023-09-19T06:02:39;15.50;99.90
35962;DHT22;22044;48.298;10.008;2023-09-19T06:05:26;15.40;99.90
35962;DHT22;22044;48.298;10.008;2023-09-19T06:08:14;15.50;99.90
35962;DHT22;22044;48.298;10.008;2023-09-19T06:11:00;15.50;99.90
35962;DHT22;22044;48.298;10.008;2023-09-19T11:23:40;20.30;99.90
35962;DHT22;22044;48.298;10.008;2023-09-19T11:26:40;20.40;99.90
35962;DHT22;22044;48.298;10.008;2023-09-19T11:29:31;20.70;99.90
35962;DHT22;22044;48.298;10.008;2023-09-19T11:36:01;20.90;99.90
35962;DHT22;22044;48.298;10.008;2023-09-19T11:39:01;21.00;99.90
35962;DHT22;22044;48.298;10.008;2023-09-19T11:41:53;21.10;99.90
35962;DHT22;22044;48.298;10.008;2023-09-19T11:44:40;21.20;99.90
35962;DHT22;22044;48.298;10.008;2023-09-19T11:47:26;21.20;99.90
35962;DHT22;22044;48.298;10.008;2023-09-19T11:50:18;21.10;99.90
35962;DHT22;22044;48.298;10.008;2023-09-19T11:53:05;21.40;99.90
35962;DHT22;22044;48.298;10.008;2023-09-19T11:55:52;21.60;99.90
35962;DHT22;22044;48.298;10.008;2023-09-19T11:58:38;21.60;99.90
35962;DHT22;22044;48.298;10.008;2023-09-19T12:01:30;21.50;99.90
35962;DHT22;22044;48.298;10.008;2023-09-19T12:04:18;21.60;99.90
35962;DHT22;22044;48.298;10.008;2023-09-19T12:07:10;21.60;99.90
35962;DHT22;22044;48.298;10.008;2023-09-19T12:10:03;21.50;99.90
35962;DHT22;22044;48.298;10.008;2023-09-19T12:12:52;21.70;99.90
35962;DHT22;22044;48.298;10.008;2023-09-19T12:15:40;21.90;99.90
35962;DHT22;22044;48.298;10.008;2023-09-19T12:18:29;22.00;99.90
35962;DHT22;22044;48.298;10.008;2023-09-19T12:21:26;21.90;99.90
35962;DHT22;22044;48.298;10.008;2023-09-19T12:24:13;21.90;99.90
35962;DHT22;22044;48.298;10.008;2023-09-19T12:27:01;22.00;99.90
35962;DHT22;22044;48.298;10.008;2023-09-19T12:29:50;22.00;99.90
35962;DHT22;22044;48.298;10.008;2023-09-19T12:32:39;21.90;99.90
35962;DHT22;22044;48.298;10.008;2023-09-19T12:35:30;21.90;99.90
35962;DHT22;22044;48.298;10.008;2023-09-19T12:38:28;21.60;99.90
35962;DHT22;22044;48.298;10.008;2023-09-19T12:41:16;21.50;99.90
35962;DHT22;22044;48.298;10.008;2023-09-19T12:44:04;21.70;99.90
35962;DHT22;22044;48.298;10.008;2023-09-19T12:46:54;21.60;99.90
35962;DHT22;22044;48.298;10.008;2023-09-19T12:50:13;21.70;99.90
35962;DHT22;22044;48.298;10.008;2023-09-19T12:53:01;21.90;99.90
35962;DHT22;22044;48.298;10.008;2023-09-19T12:55:47;21.80;99.90
35962;DHT22;22044;48.298;10.008;2023-09-19T12:58:51;21.90;99.90
35962;DHT22;22044;48.298;10.008;2023-09-19T13:01:37;21.70;99.90
35962;DHT22;22044;48.298;10.008;2023-09-19T13:04:28;21.90;99.90
35962;DHT22;22044;48.298;10.008;2023-09-19T13:07:42;22.00;99.90
35962;DHT22;22044;48.298;10.008;2023-09-19T13:10:30;22.20;99.90
35962;DHT22;22044;48.298;10.008;2023-09-19T13:13:23;22.20;99.90
35962;DHT22;22044;48.298;10.008;2023-09-19T13:16:12;22.20;99.90
35962;DHT22;22044;48.298;10.008;2023-09-19T13:19:03;22.20;99.90
35962;DHT22;22044;48.298;10.008;2023-09-19T13:21:51;22.30;99.90
35962;DHT22;22044;48.298;10.008;2023-09-19T13:24:38;22.40;99.90
35962;DHT22;22044;48.298;10.008;2023-09-19T13:27:24;22.50;99.90
35962;DHT22;22044;48.298;10.008;2023-09-19T13:30:12;22.50;99.90
35962;DHT22;22044;48.298;10.008;2023-09-19T13:33:08;22.50;99.90
35962;DHT22;22044;48.298;10.008;2023-09-19T13:35:54;22.30;99.90
35962;DHT22;22044;48.298;10.008;2023-09-19T13:38:42;22.40;99.90
35962;DHT22;22044;48.298;10.008;2023-09-19T13:41:28;22.50;99.90
35962;DHT22;22044;48.298;10.008;2023-09-19T13:44:16;22.30;99.90
35962;DHT22;22044;48.298;10.008;2023-09-19T13:47:02;22.10;99.90
35962;DHT22;22044;48.298;10.008;2023-09-19T13:49:56;22.20;99.90
35962;DHT22;22044;48.298;10.008;2023-09-19T13:52:42;22.20;99.90
35962;DHT22;22044;48.298;10.008;2023-09-19T13:55:29;22.20;99.90
35962;DHT22;22044;48.298;10.008;2023-09-19T13:58:15;22.20;99.90
35962;DHT22;22044;48.298;10.008;2023-09-19T14:01:01;22.20;99.90
35962;DHT22;22044;48.298;10.008;2023-09-19T14:03:47;22.30;99.90
35962;DHT22;22044;48.298;10.008;2023-09-19T14:06:34;22.30;99.90
35962;DHT22;22044;48.298;10.008;2023-09-19T14:09:21;22.40;99.90
35962;DHT22;22044;48.298;10.008;2023-09-19T14:12:10;22.30;99.90
35962;DHT22;22044;48.298;10.008;2023-09-19T14:14:55;22.30;99.90
35962;DHT22;22044;48.298;10.008;2023-09-19T14:17:41;22.10;99.90
35962;DHT22;22044;48.298;10.008;2023-09-19T14:20:29;22.20;99.90
35962;DHT22;22044;48.298;10.008;2023-09-19T14:23:15;22.30;99.90
35962;DHT22;22044;48.298;10.008;2023-09-19T14:26:01;22.20;99.90
35962;DHT22;22044;48.298;10.008;2023-09-19T14:28:47;22.20;99.90
35962;DHT22;22044;48.298;10.008;2023-09-19T14:31:33;22.20;99.90
35962;DHT22;22044;48.298;10.008;2023-09-19T14:34:18;22.20;99.90
35962;DHT22;22044;48.298;10.008;2023-09-19T14:37:04;22.40;99.90
35962;DHT22;22044;48.298;10.008;2023-09-19T14:39:51;22.50;99.90
35962;DHT22;22044;48.298;10.008;2023-09-19T14:42:39;22.50;99.90
35962;DHT22;22044;48.298;10.008;2023-09-19T14:45:26;22.60;99.90
35962;DHT22;22044;48.298;10.008;2023-09-19T14:48:12;22.50;99.90
35962;DHT22;22044;48.298;10.008;2023-09-19T14:51:02;22.30;99.90
35962;DHT22;22044;48.298;10.008;2023-09-19T14:53:48;22.20;99.90
35962;DHT22;22044;48.298;10.008;2023-09-19T14:56:33;22.10;99.90
35962;DHT22;22044;48.298;10.008;2023-09-19T14:59:19;22.10;99.90
35962;DHT22;22044;48.298;10.008;2023-09-19T15:02:06;22.10;99.90
35962;DHT22;22044;48.298;10.008;2023-09-19T15:04:52;22.20;99.90
35962;DHT22;22044;48.298;10.008;2023-09-19T15:07:38;22.20;99.90
35962;DHT22;22044;48.298;10.008;2023-09-19T15:10:24;22.30;99.90
35962;DHT22;22044;48.298;10.008;2023-09-19T15:13:09;22.40;99.90
35962;DHT22;22044;48.298;10.008;2023-09-19T15:15:59;22.20;99.90
35962;DHT22;22044;48.298;10.008;2023-09-19T15:18:46;22.20;99.90
35962;DHT22;22044;48.298;10.008;2023-09-19T15:21:32;22.20;99.90
35962;DHT22;22044;48.298;10.008;2023-09-19T15:24:18;22.20;99.90
35962;DHT22;22044;48.298;10.008;2023-09-19T15:27:04;22.10;99.90
35962;DHT22;22044;48.298;10.008;2023-09-19T15:29:49;22.10;99.90
35962;DHT22;22044;48.298;10.008;2023-09-19T15:32:35;22.20;99.90
35962;DHT22;22044;48.298;10.008;2023-09-19T15:35:22;22.20;99.90
35962;DHT22;22044;48.298;10.008;2023-09-19T15:38:10;22.30;99.90
35962;DHT22;22044;48.298;10.008;2023-09-19T15:40:56;22.40;99.90
35962;DHT22;22044;48.298;10.008;2023-09-19T15:43:42;22.30;99.90
35962;DHT22;22044;48.298;10.008;2023-09-19T15:46:27;22.30;99.90
35962;DHT22;22044;48.298;10.008;2023-09-19T15:49:14;22.30;99.90
35962;DHT22;22044;48.298;10.008;2023-09-19T15:52:01;22.40;99.90
35962;DHT22;22044;48.298;10.008;2023-09-19T15:54:47;22.40;99.90
35962;DHT22;22044;48.298;10.008;2023-09-19T15:57:36;22.20;99.90
35962;DHT22;22044;48.298;10.008;2023-09-19T16:00:22;22.20;99.90
35962;DHT22;22044;48.298;10.008;2023-09-19T16:03:08;22.30;99.90
35962;DHT22;22044;48.298;10.008;2023-09-19T16:05:53;22.20;99.90
35962;DHT22;22044;48.298;10.008;2023-09-19T16:08:41;21.70;99.90
35962;DHT22;22044;48.298;10.008;2023-09-19T16:11:27;21.50;99.90
35962;DHT22;22044;48.298;10.008;2023-09-19T16:14:12;21.50;99.90
35962;DHT22;22044;48.298;10.008;2023-09-19T16:16:59;21.30;99.90
35962;DHT22;22044;48.298;10.008;2023-09-19T16:19:46;21.60;99.90
35962;DHT22;22044;48.298;10.008;2023-09-19T16:22:32;21.90;99.90
35962;DHT22;22044;48.298;10.008;2023-09-19T16:25:19;22.10;99.90
35962;DHT22;22044;48.298;10.008;2023-09-19T16:28:05;22.20;99.90
35962;DHT22;22044;48.298;10.008;2023-09-19T16:30:51;22.20;99.90
35962;DHT22;22044;48.298;10.008;2023-09-19T16:33:38;21.80;99.90
35962;DHT22;22044;48.298;10.008;2023-09-19T16:36:25;21.50;99.90
35962;DHT22;22044;48.298;10.008;2023-09-19T16:39:11;21.60;99.90
35962;DHT22;22044;48.298;10.008;2023-09-19T16:41:58;21.40;99.90
35962;DHT22;22044;48.298;10.008;2023-09-19T16:44:43;21.40;99.90
35962;DHT22;22044;48.298;10.008;2023-09-19T16:47:29;21.20;99.90
35962;DHT22;22044;48.298;10.008;2023-09-19T16:50:15;20.80;99.90
35962;DHT22;22044;48.298;10.008;2023-09-19T16:53:00;20.70;99.90
35962;DHT22;22044;48.298;10.008;2023-09-19T16:55:47;20.50;99.90
35962;DHT22;22044;48.298;10.008;2023-09-19T16:58:34;20.30;99.90
35962;DHT22;22044;48.298;10.008;2023-09-19T17:01:20;20.10;99.90
35962;DHT22;22044;48.298;10.008;2023-09-19T17:04:08;20.00;99.90
35962;DHT22;22044;48.298;10.008;2023-09-19T17:06:54;19.70;99.90
35962;DHT22;22044;48.298;10.008;2023-09-19T17:09:40;19.70;99.90
35962;DHT22;22044;48.298;10.008;2023-09-19T17:12:26;19.50;99.90
35962;DHT22;22044;48.298;10.008;2023-09-19T17:15:13;19.40;99.90
35962;DHT22;22044;48.298;10.008;2023-09-19T17:17:59;19.30;99.90
35962;DHT22;22044;48.298;10.008;2023-09-19T17:20:45;19.20;99.90
35962;DHT22;22044;48.298;10.008;2023-09-19T17:23:31;19.20;99.90
35962;DHT22;22044;48.298;10.008;2023-09-19T17:26:18;19.10;99.90
35962;DHT22;22044;48.298;10.008;2023-09-19T17:29:05;19.00;99.90
35962;DHT22;22044;48.298;10.008;2023-09-19T17:31:53;19.00;99.90
35962;DHT22;22044;48.298;10.008;2023-09-19T17:34:39;19.00;99.90
35962;DHT22;22044;48.298;10.008;2023-09-19T17:37:24;18.90;99.90
35962;DHT22;22044;48.298;10.008;2023-09-19T17:40:11;18.70;99.90
35962;DHT22;22044;48.298;10.008;2023-09-19T17:42:57;18.50;99.90
35962;DHT22;22044;48.298;10.008;2023-09-19T17:45:43;18.20;99.90
35962;DHT22;22044;48.298;10.008;2023-09-19T17:48:31;18.00;99.90
35962;DHT22;22044;48.298;10.008;2023-09-19T17:51:17;18.00;99.90
35962;DHT22;22044;48.298;10.008;2023-09-19T17:54:03;17.90;99.90
35962;DHT22;22044;48.298;10.008;2023-09-19T17:56:49;17.90;99.90
35962;DHT22;22044;48.298;10.008;2023-09-19T17:59:35;17.90;99.90
35962;DHT22;22044;48.298;10.008;2023-09-19T18:02:22;17.70;99.90
35962;DHT22;22044;48.298;10.008;2023-09-19T18:05:09;17.60;99.90
35962;DHT22;22044;48.298;10.008;2023-09-19T18:08:00;17.70;99.90
35962;DHT22;22044;48.298;10.008;2023-09-19T18:10:46;17.70;99.90
35962;DHT22;22044;48.298;10.008;2023-09-19T18:13:31;17.80;99.90
35962;DHT22;22044;48.298;10.008;2023-09-19T18:16:17;17.80;99.90
35962;DHT22;22044;48.298;10.008;2023-09-19T18:19:03;17.80;99.90
35962;DHT22;22044;48.298;10.008;2023-09-19T18:21:50;17.80;99.90
35962;DHT22;22044;48.298;10.008;2023-09-19T18:24:37;17.80;99.90
35962;DHT22;22044;48.298;10.008;2023-09-19T18:27:23;17.80;99.90
35962;DHT22;22044;48.298;10.008;2023-09-19T18:30:09;17.80;99.90
35962;DHT22;22044;48.298;10.008;2023-09-19T18:32:59;17.80;99.90
35962;DHT22;22044;48.298;10.008;2023-09-19T18:35:46;17.90;99.90
35962;DHT22;22044;48.298;10.008;2023-09-19T18:38:37;18.00;99.90
35962;DHT22;22044;48.298;10.008;2023-09-19T18:41:23;18.00;99.90
35962;DHT22;22044;48.298;10.008;2023-09-19T18:44:08;18.00;99.90
35962;DHT22;22044;48.298;10.008;2023-09-19T18:46:55;18.10;99.90
35962;DHT22;22044;48.298;10.008;2023-09-19T18:49:41;18.20;99.90
35962;DHT22;22044;48.298;10.008;2023-09-19T18:52:27;18.30;99.90
35962;DHT22;22044;48.298;10.008;2023-09-19T18:55:15;18.30;99.90
35962;DHT22;22044;48.298;10.008;2023-09-19T18:58:01;18.30;99.90
35962;DHT22;22044;48.298;10.008;2023-09-19T19:00:48;18.20;99.90
35962;DHT22;22044;48.298;10.008;2023-09-19T19:03:35;17.80;99.90
35962;DHT22;22044;48.298;10.008;2023-09-19T19:06:21;17.30;99.90
35962;DHT22;22044;48.298;10.008;2023-09-19T19:09:06;16.70;99.90
35962;DHT22;22044;48.298;10.008;2023-09-19T19:11:56;16.80;99.90
35962;DHT22;22044;48.298;10.008;2023-09-19T19:14:42;16.90;99.90
35962;DHT22;22044;48.298;10.008;2023-09-19T19:17:33;17.10;99.90
35962;DHT22;22044;48.298;10.008;2023-09-19T19:20:19;17.10;99.90
35962;DHT22;22044;48.298;10.008;2023-09-19T19:23:08;16.70;99.90
35962;DHT22;22044;48.298;10.008;2023-09-19T19:25:54;16.60;99.90
35962;DHT22;22044;48.298;10.008;2023-09-19T19:28:42;16.70;99.90
35962;DHT22;22044;48.298;10.008;2023-09-19T19:31:30;16.60;99.90
35962;DHT22;22044;48.298;10.008;2023-09-19T19:34:18;16.60;99.90
35962;DHT22;22044;48.298;10.008;2023-09-19T19:37:04;16.50;99.90
35962;DHT22;22044;48.298;10.008;2023-09-19T19:39:49;16.50;99.90
35962;DHT22;22044;48.298;10.008;2023-09-19T19:42:35;16.60;99.90
35962;DHT22;22044;48.298;10.008;2023-09-19T19:45:22;16.60;99.90
35962;DHT22;22044;48.298;10.008;2023-09-19T19:48:08;16.70;99.90
35962;DHT22;22044;48.298;10.008;2023-09-19T19:50:54;16.80;99.90
35962;DHT22;22044;48.298;10.008;2023-09-19T19:53:40;16.90;99.90
35962;DHT22;22044;48.298;10.008;2023-09-19T19:56:25;16.90;99.90
35962;DHT22;22044;48.298;10.008;2023-09-19T19:59:11;16.80;99.90
35962;DHT22;22044;48.298;10.008;2023-09-19T20:01:59;16.80;99.90
35962;DHT22;22044;48.298;10.008;2023-09-19T20:04:45;16.60;99.90
35962;DHT22;22044;48.298;10.008;2023-09-19T20:07:31;16.40;99.90
35962;DHT22;22044;48.298;10.008;2023-09-19T20:10:18;16.30;99.90
35962;DHT22;22044;48.298;10.008;2023-09-19T20:13:05;16.10;99.90
35962;DHT22;22044;48.298;10.008;2023-09-19T20:15:54;16.00;99.90
35962;DHT22;22044;48.298;10.008;2023-09-19T20:18:41;16.00;99.90
35962;DHT22;22044;48.298;10.008;2023-09-19T20:21:27;15.80;99.90
35962;DHT22;22044;48.298;10.008;2023-09-19T20:24:13;15.80;99.90
35962;DHT22;22044;48.298;10.008;2023-09-19T20:27:04;15.70;99.90
35962;DHT22;22044;48.298;10.008;2023-09-19T20:29:50;15.80;99.90
35962;DHT22;22044;48.298;10.008;2023-09-19T20:32:36;15.80;99.90
35962;DHT22;22044;48.298;10.008;2023-09-19T20:35:23;15.70;99.90
35962;DHT22;22044;48.298;10.008;2023-09-19T20:38:09;15.60;99.90
35962;DHT22;22044;48.298;10.008;2023-09-19T20:40:55;15.50;99.90
35962;DHT22;22044;48.298;10.008;2023-09-19T20:43:41;15.60;99.90
35962;DHT22;22044;48.298;10.008;2023-09-19T20:46:27;15.80;99.90
35962;DHT22;22044;48.298;10.008;2023-09-19T20:49:12;15.80;99.90
35962;DHT22;22044;48.298;10.008;2023-09-19T20:51:59;15.90;99.90
35962;DHT22;22044;48.298;10.008;2023-09-19T20:54:45;15.80;99.90
35962;DHT22;22044;48.298;10.008;2023-09-19T20:57:33;15.60;99.90
35962;DHT22;22044;48.298;10.008;2023-09-19T21:00:18;15.50;99.90
35962;DHT22;22044;48.298;10.008;2023-09-19T21:03:04;15.50;99.90
35962;DHT22;22044;48.298;10.008;2023-09-19T21:05:59;15.50;99.90
35962;DHT22;22044;48.298;10.008;2023-09-19T21:08:46;15.60;99.90
35962;DHT22;22044;48.298;10.008;2023-09-19T21:11:34;15.50;99.90
35962;DHT22;22044;48.298;10.008;2023-09-19T21:14:19;15.20;99.90
35962;DHT22;22044;48.298;10.008;2023-09-19T21:17:05;14.90;99.90
35962;DHT22;22044;48.298;10.008;2023-09-19T21:19:50;14.70;99.90
35962;DHT22;22044;48.298;10.008;2023-09-19T21:22:36;14.80;99.90
35962;DHT22;22044;48.298;10.008;2023-09-19T21:25:23;14.80;99.90
35962;DHT22;22044;48.298;10.008;2023-09-19T21:28:09;14.80;99.90
35962;DHT22;22044;48.298;10.008;2023-09-19T21:30:58;14.90;99.90
35962;DHT22;22044;48.298;10.008;2023-09-19T21:33:44;15.10;99.90
35962;DHT22;22044;48.298;10.008;2023-09-19T21:36:30;15.30;99.90
35962;DHT22;22044;48.298;10.008;2023-09-19T21:39:17;15.40;99.90
35962;DHT22;22044;48.298;10.008;2023-09-19T21:42:05;15.40;99.90
35962;DHT22;22044;48.298;10.008;2023-09-19T21:44:50;15.40;99.90
35962;DHT22;22044;48.298;10.008;2023-09-19T21:47:36;15.20;99.90
35962;DHT22;22044;48.298;10.008;2023-09-19T21:50:22;14.90;99.90
35962;DHT22;22044;48.298;10.008;2023-09-19T21:53:09;14.80;99.90
35962;DHT22;22044;48.298;10.008;2023-09-19T21:55:58;14.80;99.90
35962;DHT22;22044;48.298;10.008;2023-09-19T21:58:46;14.90;99.90
35962;DHT22;22044;48.298;10.008;2023-09-19T22:01:33;14.90;99.90
35962;DHT22;22044;48.298;10.008;2023-09-19T22:04:19;14.90;99.90
35962;DHT22;22044;48.298;10.008;2023-09-19T22:07:06;14.70;99.90
35962;DHT22;22044;48.298;10.008;2023-09-19T22:09:53;14.70;99.90
35962;DHT22;22044;48.298;10.008;2023-09-19T22:12:38;14.80;99.90
35962;DHT22;22044;48.298;10.008;2023-09-19T22:15:25;14.80;99.90
35962;DHT22;22044;48.298;10.008;2023-09-19T22:18:12;14.80;99.90
35962;DHT22;22044;48.298;10.008;2023-09-19T22:20:58;14.70;99.90
35962;DHT22;22044;48.298;10.008;2023-09-19T22:23:51;14.80;99.90
35962;DHT22;22044;48.298;10.008;2023-09-19T22:26:37;14.90;99.90
35962;DHT22;22044;48.298;10.008;2023-09-19T22:29:30;15.00;99.90
35962;DHT22;22044;48.298;10.008;2023-09-19T22:32:19;15.10;99.90
35962;DHT22;22044;48.298;10.008;2023-09-19T22:35:04;15.00;99.90